sensor_id;sensor_type;location;lat;lon;timestamp;P1;durP1;ratioP1;P2;durP2;ratioP2
37169;SDS011;23062;13.952;100.608;2023-05-02T00:00:45;40.00;;;31.00;;
37169;SDS011;23062;13.952;100.608;2023-05-02T00:05:11;44.00;;;33.00;;
37169;SDS011;23062;13.952;100.608;2023-05-02T00:09:37;37.00;;;29.00;;
37169;SDS011;23062;13.952;100.608;2023-05-02T00:14:04;41.00;;;32.00;;
37169;SDS011;23062;13.952;100.608;2023-05-02T00:18:29;35.00;;;28.00;;
37169;SDS011;23062;13.952;100.608;2023-05-02T00:22:55;40.00;;;29.00;;
37169;SDS011;23062;13.952;100.608;2023-05-02T00:27:20;37.00;;;29.00;;
37169;SDS011;23062;13.952;100.608;2023-05-02T00:31:46;40.00;;;29.00;;
37169;SDS011;23062;13.952;100.608;2023-05-02T00:36:16;38.00;;;29.00;;
37169;SDS011;23062;13.952;100.608;2023-05-02T00:40:45;45.00;;;28.60;;
37169;SDS011;23062;13.952;100.608;2023-05-02T00:45:12;37.00;;;27.00;;
37169;SDS011;23062;13.952;100.608;2023-05-02T00:49:44;40.00;;;29.00;;
37169;SDS011;23062;13.952;100.608;2023-05-02T00:54:11;36.00;;;27.00;;
37169;SDS011;23062;13.952;100.608;2023-05-02T00:58:42;41.00;;;31.00;;
37169;SDS011;23062;13.952;100.608;2023-05-02T01:08:12;37.00;;;29.00;;
37169;SDS011;23062;13.952;100.608;2023-05-02T01:12:44;33.00;;;25.00;;
37169;SDS011;23062;13.952;100.608;2023-05-02T01:17:16;37.00;;;27.00;;
37169;SDS011;23062;13.952;100.608;2023-05-02T01:21:47;36.00;;;28.00;;
37169;SDS011;23062;13.952;100.608;2023-05-02T01:31:00;36.00;;;26.00;;
37169;SDS011;23062;13.952;100.608;2023-05-02T01:35:29;36.00;;;27.00;;
37169;SDS011;23062;13.952;100.608;2023-05-02T01:39:56;33.00;;;26.00;;
37169;SDS011;23062;13.952;100.608;2023-05-02T01:44:25;33.00;;;24.00;;
37169;SDS011;23062;13.952;100.608;2023-05-02T01:48:52;32.00;;;24.00;;
37169;SDS011;23062;13.952;100.608;2023-05-02T01:53:20;35.00;;;28.00;;
37169;SDS011;23062;13.952;100.608;2023-05-02T01:57:48;37.00;;;28.00;;
37169;SDS011;23062;13.952;100.608;2023-05-02T02:02:16;37.00;;;28.00;;
37169;SDS011;23062;13.952;100.608;2023-05-02T02:06:54;32.00;;;25.00;;
37169;SDS011;23062;13.952;100.608;2023-05-02T02:11:24;32.00;;;25.00;;
37169;SDS011;23062;13.952;100.608;2023-05-02T02:15:52;25.00;;;20.00;;
37169;SDS011;23062;13.952;100.608;2023-05-02T02:20:19;30.00;;;23.00;;
37169;SDS011;23062;13.952;100.608;2023-05-02T02:24:46;31.00;;;23.00;;
37169;SDS011;23062;13.952;100.608;2023-05-02T02:29:14;32.00;;;24.00;;
37169;SDS011;23062;13.952;100.608;2023-05-02T02:33:40;35.00;;;25.00;;
37169;SDS011;23062;13.952;100.608;2023-05-02T02:42:36;32.00;;;24.00;;
37169;SDS011;23062;13.952;100.608;2023-05-02T02:51:43;34.00;;;26.00;;
37169;SDS011;23062;13.952;100.608;2023-05-02T02:56:14;32.00;;;24.00;;
37169;SDS011;23062;13.952;100.608;2023-05-02T03:00:41;35.00;;;27.00;;
37169;SDS011;23062;13.952;100.608;2023-05-02T03:05:08;35.00;;;27.00;;
37169;SDS011;23062;13.952;100.608;2023-05-02T03:09:41;36.00;;;28.00;;
37169;SDS011;23062;13.952;100.608;2023-05-02T03:14:07;36.00;;;26.00;;
37169;SDS011;23062;13.952;100.608;2023-05-02T03:18:33;34.00;;;26.00;;
37169;SDS011;23062;13.952;100.608;2023-05-02T03:22:59;35.00;;;25.00;;
37169;SDS011;23062;13.952;100.608;2023-05-02T03:27:26;34.00;;;25.00;;
37169;SDS011;23062;13.952;100.608;2023-05-02T03:31:53;35.00;;;26.00;;
37169;SDS011;23062;13.952;100.608;2023-05-02T03:36:26;34.00;;;25.00;;
37169;SDS011;23062;13.952;100.608;2023-05-02T03:40:52;33.00;;;25.00;;
37169;SDS011;23062;13.952;100.608;2023-05-02T03:45:21;35.00;;;28.00;;
37169;SDS011;23062;13.952;100.608;2023-05-02T03:49:47;31.00;;;24.00;;
37169;SDS011;23062;13.952;100.608;2023-05-02T03:54:15;33.00;;;25.00;;
37169;SDS011;23062;13.952;100.608;2023-05-02T03:58:41;34.00;;;27.00;;
37169;SDS011;23062;13.952;100.608;2023-05-02T04:03:07;33.00;;;26.00;;
37169;SDS011;23062;13.952;100.608;2023-05-02T04:07:33;39.00;;;25.13;;
37169;SDS011;23062;13.952;100.608;2023-05-02T04:11:58;37.00;;;28.00;;
37169;SDS011;23062;13.952;100.608;2023-05-02T04:16:24;33.00;;;24.00;;
37169;SDS011;23062;13.952;100.608;2023-05-02T04:20:51;32.00;;;25.00;;
37169;SDS011;23062;13.952;100.608;2023-05-02T04:25:16;32.00;;;25.00;;
37169;SDS011;23062;13.952;100.608;2023-05-02T04:29:43;30.00;;;23.00;;
37169;SDS011;23062;13.952;100.608;2023-05-02T04:34:13;31.00;;;24.00;;
37169;SDS011;23062;13.952;100.608;2023-05-02T04:38:39;30.00;;;23.00;;
37169;SDS011;23062;13.952;100.608;2023-05-02T04:43:04;29.00;;;23.00;;
37169;SDS011;23062;13.952;100.608;2023-05-02T04:47:30;32.00;;;24.00;;
37169;SDS011;23062;13.952;100.608;2023-05-02T04:51:56;29.00;;;22.00;;
37169;SDS011;23062;13.952;100.608;2023-05-02T04:56:22;34.00;;;25.00;;
37169;SDS011;23062;13.952;100.608;2023-05-02T05:00:53;34.00;;;25.00;;
37169;SDS011;23062;13.952;100.608;2023-05-02T05:05:19;33.00;;;25.00;;
37169;SDS011;23062;13.952;100.608;2023-05-02T05:09:45;36.00;;;26.00;;
37169;SDS011;23062;13.952;100.608;2023-05-02T05:14:10;35.00;;;27.00;;
37169;SDS011;23062;13.952;100.608;2023-05-02T05:18:36;34.00;;;25.00;;
37169;SDS011;23062;13.952;100.608;2023-05-02T05:23:04;35.00;;;27.00;;
37169;SDS011;23062;13.952;100.608;2023-05-02T05:27:30;35.00;;;25.00;;
37169;SDS011;23062;13.952;100.608;2023-05-02T05:31:56;34.00;;;26.00;;
37169;SDS011;23062;13.952;100.608;2023-05-02T05:36:22;32.00;;;24.00;;
37169;SDS011;23062;13.952;100.608;2023-05-02T05:40:50;30.00;;;22.00;;
37169;SDS011;23062;13.952;100.608;2023-05-02T05:45:15;27.00;;;21.00;;
37169;SDS011;23062;13.952;100.608;2023-05-02T05:49:44;29.00;;;22.00;;
37169;SDS011;23062;13.952;100.608;2023-05-02T05:54:11;25.00;;;18.00;;
37169;SDS011;23062;13.952;100.608;2023-05-02T05:58:36;25.00;;;19.00;;
37169;SDS011;23062;13.952;100.608;2023-05-02T06:03:03;27.00;;;21.00;;
37169;SDS011;23062;13.952;100.608;2023-05-02T06:07:29;28.00;;;22.00;;
37169;SDS011;23062;13.952;100.608;2023-05-02T06:11:55;27.00;;;19.00;;
37169;SDS011;23062;13.952;100.608;2023-05-02T06:16:22;23.00;;;18.00;;
37169;SDS011;23062;13.952;100.608;2023-05-02T06:20:47;27.00;;;20.00;;
37169;SDS011;23062;13.952;100.608;2023-05-02T06:25:17;25.00;;;19.00;;
37169;SDS011;23062;13.952;100.608;2023-05-02T06:29:43;30.00;;;22.00;;
37169;SDS011;23062;13.952;100.608;2023-05-02T06:34:12;29.00;;;23.00;;
37169;SDS011;23062;13.952;100.608;2023-05-02T06:38:39;30.00;;;24.00;;
37169;SDS011;23062;13.952;100.608;2023-05-02T06:43:08;34.00;;;26.00;;
37169;SDS011;23062;13.952;100.608;2023-05-02T06:47:34;35.00;;;27.00;;
37169;SDS011;23062;13.952;100.608;2023-05-02T06:52:00;45.00;;;35.00;;
37169;SDS011;23062;13.952;100.608;2023-05-02T06:56:25;44.00;;;34.00;;
37169;SDS011;23062;13.952;100.608;2023-05-02T07:00:55;40.00;;;30.00;;
37169;SDS011;23062;13.952;100.608;2023-05-02T07:05:20;35.00;;;27.00;;
37169;SDS011;23062;13.952;100.608;2023-05-02T07:09:50;33.00;;;25.00;;
37169;SDS011;23062;13.952;100.608;2023-05-02T07:14:23;32.00;;;25.00;;
37169;SDS011;23062;13.952;100.608;2023-05-02T07:18:58;30.00;;;22.00;;
37169;SDS011;23062;13.952;100.608;2023-05-02T07:23:23;29.00;;;22.00;;
37169;SDS011;23062;13.952;100.608;2023-05-02T07:27:49;33.00;;;24.00;;
37169;SDS011;23062;13.952;100.608;2023-05-02T07:32:14;30.00;;;22.00;;
37169;SDS011;23062;13.952;100.608;2023-05-02T07:36:47;30.00;;;22.00;;
37169;SDS011;23062;13.952;100.608;2023-05-02T07:41:16;29.00;;;21.00;;
37169;SDS011;23062;13.952;100.608;2023-05-02T07:45:45;30.00;;;22.00;;
37169;SDS011;23062;13.952;100.608;2023-05-02T07:50:11;29.00;;;22.00;;
37169;SDS011;23062;13.952;100.608;2023-05-02T07:54:36;30.00;;;22.00;;
37169;SDS011;23062;13.952;100.608;2023-05-02T07:59:05;28.00;;;22.00;;
37169;SDS011;23062;13.952;100.608;2023-05-02T08:03:33;31.00;;;23.00;;
37169;SDS011;23062;13.952;100.608;2023-05-02T08:08:01;29.00;;;21.00;;
37169;SDS011;23062;13.952;100.608;2023-05-02T08:12:28;29.00;;;22.00;;
37169;SDS011;23062;13.952;100.608;2023-05-02T08:16:53;31.00;;;24.00;;
37169;SDS011;23062;13.952;100.608;2023-05-02T08:21:20;30.00;;;22.00;;
37169;SDS011;23062;13.952;100.608;2023-05-02T08:25:47;28.00;;;20.00;;
37169;SDS011;23062;13.952;100.608;2023-05-02T08:30:12;35.00;;;25.00;;
37169;SDS011;23062;13.952;100.608;2023-05-02T08:34:38;31.00;;;23.00;;
37169;SDS011;23062;13.952;100.608;2023-05-02T08:39:10;34.00;;;25.00;;
37169;SDS011;23062;13.952;100.608;2023-05-02T08:43:37;33.00;;;25.00;;
37169;SDS011;23062;13.952;100.608;2023-05-02T08:48:07;42.00;;;31.00;;
37169;SDS011;23062;13.952;100.608;2023-05-02T08:52:34;42.00;;;27.73;;
37169;SDS011;23062;13.952;100.608;2023-05-02T08:57:00;41.00;;;31.00;;
37169;SDS011;23062;13.952;100.608;2023-05-02T09:01:29;42.00;;;32.00;;
37169;SDS011;23062;13.952;100.608;2023-05-02T09:06:05;42.00;;;33.00;;
37169;SDS011;23062;13.952;100.608;2023-05-02T09:10:42;43.00;;;33.00;;
37169;SDS011;23062;13.952;100.608;2023-05-02T09:15:15;38.00;;;29.00;;
37169;SDS011;23062;13.952;100.608;2023-05-02T09:19:42;37.00;;;29.00;;
37169;SDS011;23062;13.952;100.608;2023-05-02T09:24:15;35.00;;;25.00;;
37169;SDS011;23062;13.952;100.608;2023-05-02T09:28:52;36.00;;;26.00;;
37169;SDS011;23062;13.952;100.608;2023-05-02T09:33:25;32.00;;;24.00;;
37169;SDS011;23062;13.952;100.608;2023-05-02T09:37:51;28.00;;;20.00;;
37169;SDS011;23062;13.952;100.608;2023-05-02T09:42:29;31.00;;;22.00;;
37169;SDS011;23062;13.952;100.608;2023-05-02T09:46:52;26.00;;;20.00;;
37169;SDS011;23062;13.952;100.608;2023-05-02T09:51:21;33.00;;;24.00;;
37169;SDS011;23062;13.952;100.608;2023-05-02T09:55:48;29.00;;;22.00;;
37169;SDS011;23062;13.952;100.608;2023-05-02T10:00:39;28.00;;;22.00;;
37169;SDS011;23062;13.952;100.608;2023-05-02T10:05:08;34.00;;;25.00;;
37169;SDS011;23062;13.952;100.608;2023-05-02T10:09:40;30.00;;;22.00;;
37169;SDS011;23062;13.952;100.608;2023-05-02T10:14:09;32.00;;;24.00;;
37169;SDS011;23062;13.952;100.608;2023-05-02T10:23:28;27.00;;;21.00;;
37169;SDS011;23062;13.952;100.608;2023-05-02T10:27:56;30.00;;;23.00;;
37169;SDS011;23062;13.952;100.608;2023-05-02T10:32:27;31.00;;;23.00;;
37169;SDS011;23062;13.952;100.608;2023-05-02T10:36:53;32.00;;;23.00;;
37169;SDS011;23062;13.952;100.608;2023-05-02T10:41:21;29.00;;;21.00;;
37169;SDS011;23062;13.952;100.608;2023-05-02T10:45:49;29.00;;;21.00;;
37169;SDS011;23062;13.952;100.608;2023-05-02T10:50:18;26.00;;;19.00;;
37169;SDS011;23062;13.952;100.608;2023-05-02T10:54:45;19.00;;;15.00;;
37169;SDS011;23062;13.952;100.608;2023-05-02T10:59:26;13.00;;;9.00;;
37169;SDS011;23062;13.952;100.608;2023-05-02T11:03:54;7.00;;;5.00;;
37169;SDS011;23062;13.952;100.608;2023-05-02T11:12:57;8.00;;;6.00;;
37169;SDS011;23062;13.952;100.608;2023-05-02T11:17:26;11.00;;;7.00;;
37169;SDS011;23062;13.952;100.608;2023-05-02T11:21:51;8.00;;;6.00;;
37169;SDS011;23062;13.952;100.608;2023-05-02T11:26:21;9.00;;;6.00;;
37169;SDS011;23062;13.952;100.608;2023-05-02T11:30:48;11.00;;;8.00;;
37169;SDS011;23062;13.952;100.608;2023-05-02T11:35:17;11.00;;;8.00;;
37169;SDS011;23062;13.952;100.608;2023-05-02T11:39:47;12.00;;;8.00;;
37169;SDS011;23062;13.952;100.608;2023-05-02T11:44:13;15.00;;;10.00;;
37169;SDS011;23062;13.952;100.608;2023-05-02T11:48:42;13.00;;;9.00;;
37169;SDS011;23062;13.952;100.608;2023-05-02T11:53:10;16.00;;;12.00;;
37169;SDS011;23062;13.952;100.608;2023-05-02T11:57:37;13.00;;;10.00;;
37169;SDS011;23062;13.952;100.608;2023-05-02T12:02:08;15.00;;;11.00;;
37169;SDS011;23062;13.952;100.608;2023-05-02T12:06:34;14.00;;;10.00;;
37169;SDS011;23062;13.952;100.608;2023-05-02T12:11:00;14.00;;;10.00;;
37169;SDS011;23062;13.952;100.608;2023-05-02T12:15:26;13.00;;;10.00;;
37169;SDS011;23062;13.952;100.608;2023-05-02T12:19:57;16.00;;;11.00;;
37169;SDS011;23062;13.952;100.608;2023-05-02T12:24:31;15.00;;;11.00;;
37169;SDS011;23062;13.952;100.608;2023-05-02T12:29:01;16.00;;;12.00;;
37169;SDS011;23062;13.952;100.608;2023-05-02T12:33:28;14.00;;;10.00;;
37169;SDS011;23062;13.952;100.608;2023-05-02T12:38:13;15.00;;;11.00;;
37169;SDS011;23062;13.952;100.608;2023-05-02T12:42:37;18.00;;;13.00;;
37169;SDS011;23062;13.952;100.608;2023-05-02T12:47:02;18.00;;;13.00;;
37169;SDS011;23062;13.952;100.608;2023-05-02T12:51:29;18.00;;;13.00;;
37169;SDS011;23062;13.952;100.608;2023-05-02T12:56:02;17.00;;;12.00;;
37169;SDS011;23062;13.952;100.608;2023-05-02T13:00:28;17.00;;;13.00;;
37169;SDS011;23062;13.952;100.608;2023-05-02T13:04:55;20.00;;;15.00;;
37169;SDS011;23062;13.952;100.608;2023-05-02T13:09:21;19.00;;;14.00;;
37169;SDS011;23062;13.952;100.608;2023-05-02T13:13:46;18.00;;;14.00;;
37169;SDS011;23062;13.952;100.608;2023-05-02T13:18:19;18.00;;;14.00;;
37169;SDS011;23062;13.952;100.608;2023-05-02T13:22:44;17.00;;;13.00;;
37169;SDS011;23062;13.952;100.608;2023-05-02T13:27:10;21.00;;;13.87;;
37169;SDS011;23062;13.952;100.608;2023-05-02T13:31:35;21.00;;;15.00;;
37169;SDS011;23062;13.952;100.608;2023-05-02T13:36:02;18.00;;;13.00;;
37169;SDS011;23062;13.952;100.608;2023-05-02T13:40:29;21.00;;;15.00;;
37169;SDS011;23062;13.952;100.608;2023-05-02T13:44:56;19.00;;;15.00;;
37169;SDS011;23062;13.952;100.608;2023-05-02T13:49:25;18.00;;;13.00;;
37169;SDS011;23062;13.952;100.608;2023-05-02T13:53:54;20.00;;;15.00;;
37169;SDS011;23062;13.952;100.608;2023-05-02T13:58:21;21.00;;;16.00;;
37169;SDS011;23062;13.952;100.608;2023-05-02T14:02:49;21.00;;;15.00;;
37169;SDS011;23062;13.952;100.608;2023-05-02T14:07:16;23.00;;;17.00;;
37169;SDS011;23062;13.952;100.608;2023-05-02T14:11:42;24.00;;;17.00;;
37169;SDS011;23062;13.952;100.608;2023-05-02T14:16:08;21.00;;;16.00;;
37169;SDS011;23062;13.952;100.608;2023-05-02T14:20:34;20.00;;;15.00;;
37169;SDS011;23062;13.952;100.608;2023-05-02T14:25:02;22.00;;;16.00;;
37169;SDS011;23062;13.952;100.608;2023-05-02T14:29:29;21.00;;;16.00;;
37169;SDS011;23062;13.952;100.608;2023-05-02T14:33:55;17.00;;;13.00;;
37169;SDS011;23062;13.952;100.608;2023-05-02T14:38:24;22.00;;;16.00;;
37169;SDS011;23062;13.952;100.608;2023-05-02T14:42:51;22.00;;;16.00;;
37169;SDS011;23062;13.952;100.608;2023-05-02T14:47:17;21.00;;;16.00;;
37169;SDS011;23062;13.952;100.608;2023-05-02T14:51:44;26.00;;;19.00;;
37169;SDS011;23062;13.952;100.608;2023-05-02T14:56:11;20.00;;;14.00;;
37169;SDS011;23062;13.952;100.608;2023-05-02T15:00:38;21.00;;;15.00;;
37169;SDS011;23062;13.952;100.608;2023-05-02T15:05:08;23.00;;;18.00;;
37169;SDS011;23062;13.952;100.608;2023-05-02T15:09:34;21.00;;;16.00;;
37169;SDS011;23062;13.952;100.608;2023-05-02T15:14:01;24.00;;;18.00;;
37169;SDS011;23062;13.952;100.608;2023-05-02T15:18:35;24.00;;;19.00;;
37169;SDS011;23062;13.952;100.608;2023-05-02T15:23:04;21.00;;;16.00;;
37169;SDS011;23062;13.952;100.608;2023-05-02T15:27:31;23.00;;;16.00;;
37169;SDS011;23062;13.952;100.608;2023-05-02T15:31:57;25.00;;;16.47;;
37169;SDS011;23062;13.952;100.608;2023-05-02T15:36:26;21.00;;;16.00;;
37169;SDS011;23062;13.952;100.608;2023-05-02T15:40:53;21.00;;;15.00;;
37169;SDS011;23062;13.952;100.608;2023-05-02T15:45:19;20.00;;;15.00;;
37169;SDS011;23062;13.952;100.608;2023-05-02T15:49:46;23.00;;;17.00;;
37169;SDS011;23062;13.952;100.608;2023-05-02T15:54:13;24.00;;;18.00;;
37169;SDS011;23062;13.952;100.608;2023-05-02T15:58:38;23.00;;;17.00;;
37169;SDS011;23062;13.952;100.608;2023-05-02T16:03:04;24.00;;;18.00;;
37169;SDS011;23062;13.952;100.608;2023-05-02T16:07:30;25.00;;;19.00;;
37169;SDS011;23062;13.952;100.608;2023-05-02T16:12:00;22.00;;;16.00;;
37169;SDS011;23062;13.952;100.608;2023-05-02T16:16:26;24.00;;;17.00;;
37169;SDS011;23062;13.952;100.608;2023-05-02T16:20:53;23.00;;;16.00;;
37169;SDS011;23062;13.952;100.608;2023-05-02T16:25:20;22.00;;;16.00;;
37169;SDS011;23062;13.952;100.608;2023-05-02T16:29:45;23.00;;;17.00;;
37169;SDS011;23062;13.952;100.608;2023-05-02T16:34:18;21.00;;;16.00;;
37169;SDS011;23062;13.952;100.608;2023-05-02T16:38:45;23.00;;;17.00;;
37169;SDS011;23062;13.952;100.608;2023-05-02T16:43:10;22.00;;;17.00;;
37169;SDS011;23062;13.952;100.608;2023-05-02T16:47:42;23.00;;;16.00;;
37169;SDS011;23062;13.952;100.608;2023-05-02T16:52:08;20.00;;;15.00;;
37169;SDS011;23062;13.952;100.608;2023-05-02T16:56:35;23.00;;;17.00;;
37169;SDS011;23062;13.952;100.608;2023-05-02T17:01:01;21.00;;;16.00;;
37169;SDS011;23062;13.952;100.608;2023-05-02T17:05:27;21.00;;;15.00;;
37169;SDS011;23062;13.952;100.608;2023-05-02T17:09:53;23.00;;;17.00;;
37169;SDS011;23062;13.952;100.608;2023-05-02T17:14:19;22.00;;;16.00;;
37169;SDS011;23062;13.952;100.608;2023-05-02T17:18:46;21.00;;;16.00;;
37169;SDS011;23062;13.952;100.608;2023-05-02T17:23:14;19.00;;;14.00;;
37169;SDS011;23062;13.952;100.608;2023-05-02T17:27:39;22.00;;;16.00;;
37169;SDS011;23062;13.952;100.608;2023-05-02T17:32:05;20.00;;;15.00;;
37169;SDS011;23062;13.952;100.608;2023-05-02T17:36:34;23.00;;;17.00;;
37169;SDS011;23062;13.952;100.608;2023-05-02T17:41:01;21.00;;;15.00;;
37169;SDS011;23062;13.952;100.608;2023-05-02T17:45:28;25.00;;;18.00;;
37169;SDS011;23062;13.952;100.608;2023-05-02T17:49:54;20.00;;;16.00;;
37169;SDS011;23062;13.952;100.608;2023-05-02T17:54:22;24.00;;;18.00;;
37169;SDS011;23062;13.952;100.608;2023-05-02T17:58:49;24.00;;;18.00;;
37169;SDS011;23062;13.952;100.608;2023-05-02T18:03:15;20.00;;;15.00;;
37169;SDS011;23062;13.952;100.608;2023-05-02T18:07:43;24.00;;;18.00;;
37169;SDS011;23062;13.952;100.608;2023-05-02T18:12:09;25.00;;;19.00;;
37169;SDS011;23062;13.952;100.608;2023-05-02T18:16:35;23.00;;;17.00;;
37169;SDS011;23062;13.952;100.608;2023-05-02T18:21:02;21.00;;;16.00;;
37169;SDS011;23062;13.952;100.608;2023-05-02T18:25:35;21.00;;;16.00;;
37169;SDS011;23062;13.952;100.608;2023-05-02T18:30:01;25.00;;;19.00;;
37169;SDS011;23062;13.952;100.608;2023-05-02T18:34:33;24.00;;;19.00;;
37169;SDS011;23062;13.952;100.608;2023-05-02T18:39:00;22.00;;;17.00;;
37169;SDS011;23062;13.952;100.608;2023-05-02T18:43:27;24.00;;;17.00;;
37169;SDS011;23062;13.952;100.608;2023-05-02T18:47:58;22.00;;;17.00;;
37169;SDS011;23062;13.952;100.608;2023-05-02T18:52:25;23.00;;;16.00;;
37169;SDS011;23062;13.952;100.608;2023-05-02T18:56:53;24.00;;;18.00;;
37169;SDS011;23062;13.952;100.608;2023-05-02T19:01:20;24.00;;;18.00;;
37169;SDS011;23062;13.952;100.608;2023-05-02T19:05:46;25.00;;;18.00;;
37169;SDS011;23062;13.952;100.608;2023-05-02T19:10:13;24.00;;;17.00;;
37169;SDS011;23062;13.952;100.608;2023-05-02T19:14:46;21.00;;;16.00;;
37169;SDS011;23062;13.952;100.608;2023-05-02T19:19:15;18.00;;;14.00;;
37169;SDS011;23062;13.952;100.608;2023-05-02T19:23:43;19.00;;;15.00;;
37169;SDS011;23062;13.952;100.608;2023-05-02T19:28:09;21.00;;;15.00;;
37169;SDS011;23062;13.952;100.608;2023-05-02T19:32:40;20.00;;;15.00;;
37169;SDS011;23062;13.952;100.608;2023-05-02T19:37:05;22.00;;;16.00;;
37169;SDS011;23062;13.952;100.608;2023-05-02T19:41:31;20.00;;;15.00;;
37169;SDS011;23062;13.952;100.608;2023-05-02T19:45:57;19.00;;;15.00;;
37169;SDS011;23062;13.952;100.608;2023-05-02T19:50:24;19.00;;;15.00;;
37169;SDS011;23062;13.952;100.608;2023-05-02T19:54:50;18.00;;;13.00;;
37169;SDS011;23062;13.952;100.608;2023-05-02T19:59:16;23.00;;;16.00;;
37169;SDS011;23062;13.952;100.608;2023-05-02T20:03:46;20.00;;;15.00;;
37169;SDS011;23062;13.952;100.608;2023-05-02T20:08:13;21.00;;;16.00;;
37169;SDS011;23062;13.952;100.608;2023-05-02T20:12:39;25.00;;;18.00;;
37169;SDS011;23062;13.952;100.608;2023-05-02T20:17:06;22.00;;;16.00;;
37169;SDS011;23062;13.952;100.608;2023-05-02T20:21:32;24.00;;;17.00;;
37169;SDS011;23062;13.952;100.608;2023-05-02T20:26:00;20.00;;;15.00;;
37169;SDS011;23062;13.952;100.608;2023-05-02T20:30:29;20.00;;;15.00;;
37169;SDS011;23062;13.952;100.608;2023-05-02T20:34:55;20.00;;;16.00;;
37169;SDS011;23062;13.952;100.608;2023-05-02T20:39:21;24.00;;;17.00;;
37169;SDS011;23062;13.952;100.608;2023-05-02T20:43:50;24.00;;;18.00;;
37169;SDS011;23062;13.952;100.608;2023-05-02T20:48:19;22.00;;;16.00;;
37169;SDS011;23062;13.952;100.608;2023-05-02T20:52:45;25.00;;;18.00;;
37169;SDS011;23062;13.952;100.608;2023-05-02T20:57:11;23.00;;;17.00;;
37169;SDS011;23062;13.952;100.608;2023-05-02T21:01:38;22.00;;;16.00;;
37169;SDS011;23062;13.952;100.608;2023-05-02T21:06:08;22.00;;;16.00;;
37169;SDS011;23062;13.952;100.608;2023-05-02T21:10:37;21.00;;;15.00;;
37169;SDS011;23062;13.952;100.608;2023-05-02T21:15:06;25.00;;;18.00;;
37169;SDS011;23062;13.952;100.608;2023-05-02T21:19:33;20.00;;;15.00;;
37169;SDS011;23062;13.952;100.608;2023-05-02T21:24:03;21.00;;;16.00;;
37169;SDS011;23062;13.952;100.608;2023-05-02T21:28:30;20.00;;;15.00;;
37169;SDS011;23062;13.952;100.608;2023-05-02T21:32:56;20.00;;;15.00;;
37169;SDS011;23062;13.952;100.608;2023-05-02T21:37:22;22.00;;;16.00;;
37169;SDS011;23062;13.952;100.608;2023-05-02T21:41:48;23.00;;;15.87;;
37169;SDS011;23062;13.952;100.608;2023-05-02T21:46:17;20.00;;;15.00;;
37169;SDS011;23062;13.952;100.608;2023-05-02T21:50:50;20.00;;;15.00;;
37169;SDS011;23062;13.952;100.608;2023-05-02T21:55:16;22.00;;;16.00;;
37169;SDS011;23062;13.952;100.608;2023-05-02T21:59:42;22.00;;;17.00;;
37169;SDS011;23062;13.952;100.608;2023-05-02T22:04:12;20.00;;;15.00;;
37169;SDS011;23062;13.952;100.608;2023-05-02T22:08:40;27.00;;;20.00;;
37169;SDS011;23062;13.952;100.608;2023-05-02T22:13:06;26.00;;;20.00;;
37169;SDS011;23062;13.952;100.608;2023-05-02T22:17:41;23.00;;;17.00;;
37169;SDS011;23062;13.952;100.608;2023-05-02T22:22:12;29.00;;;22.00;;
37169;SDS011;23062;13.952;100.608;2023-05-02T22:26:38;27.00;;;20.00;;
37169;SDS011;23062;13.952;100.608;2023-05-02T22:31:04;28.00;;;22.00;;
37169;SDS011;23062;13.952;100.608;2023-05-02T22:35:37;31.00;;;23.00;;
37169;SDS011;23062;13.952;100.608;2023-05-02T22:40:04;31.00;;;23.00;;
37169;SDS011;23062;13.952;100.608;2023-05-02T22:44:31;30.00;;;22.00;;
37169;SDS011;23062;13.952;100.608;2023-05-02T22:48:57;29.00;;;22.00;;
37169;SDS011;23062;13.952;100.608;2023-05-02T22:53:24;28.00;;;22.00;;
37169;SDS011;23062;13.952;100.608;2023-05-02T22:57:52;23.00;;;18.00;;
37169;SDS011;23062;13.952;100.608;2023-05-02T23:02:18;25.00;;;18.00;;
37169;SDS011;23062;13.952;100.608;2023-05-02T23:06:44;32.00;;;23.00;;
37169;SDS011;23062;13.952;100.608;2023-05-02T23:11:10;28.00;;;20.00;;
37169;SDS011;23062;13.952;100.608;2023-05-02T23:15:36;32.00;;;23.00;;
37169;SDS011;23062;13.952;100.608;2023-05-02T23:20:05;24.00;;;19.00;;
37169;SDS011;23062;13.952;100.608;2023-05-02T23:24:32;28.00;;;21.00;;
37169;SDS011;23062;13.952;100.608;2023-05-02T23:28:59;26.00;;;19.00;;
37169;SDS011;23062;13.952;100.608;2023-05-02T23:33:26;32.00;;;23.33;;
37169;SDS011;23062;13.952;100.608;2023-05-02T23:37:52;32.00;;;23.00;;
37169;SDS011;23062;13.952;100.608;2023-05-02T23:42:18;30.00;;;23.00;;
37169;SDS011;23062;13.952;100.608;2023-05-02T23:46:47;33.00;;;22.40;;
37169;SDS011;23062;13.952;100.608;2023-05-02T23:51:15;29.00;;;23.00;;
37169;SDS011;23062;13.952;100.608;2023-05-02T23:55:40;34.00;;;27.00;;
